Chemical Pioneer — KAFO — position and weather

sailwx.info

Track history (hours):
 
Tides and Currents Weather Stations Pressure Air Temp Water Temp Dewpoint Dewpoint Depression Visibility Wind Speed Wind Dir Waves Ship Positions

Chemical Pioneer

Owner: US Shipping Corp, Edison, NJ. More information available from US FCC via Universal Licensing System and Coast Guard Vessel Documentation Center.

Last reported at 2017-May-24 09:51 UTC. Time now 2017-May-24 19:36 UTC.
Position N 30°13' W 093°17'.

Type: Tanker. MMSI: 366032000.

Date/timePositionNaut miles runAvg speedWind from/ knotsBaromVisibWave heightAir tempDewpointWater temp
2017-May-24 09:51N 30°13' W 093°17'0 0.1
2017-May-24 09:30N 30°13' W 093°17'1 2.0
2017-May-24 09:00N 30°12' W 093°17'2 4.8
2017-May-24 08:30N 30°11' W 093°19'2 4.2
2017-May-24 08:00N 30°09' W 093°20'4 7.8
2017-May-24 07:30N 30°05' W 093°20'4 8.3
2017-May-24 07:00N 30°01' W 093°20'4 7.3
2017-May-24 06:30N 29°57' W 093°20'4 8.3
2017-May-24 06:00N 29°53' W 093°21'4 8.6
2017-May-24 05:30N 29°49' W 093°21'4 8.2
2017-May-24 05:00N 29°45' W 093°20'712.9
2017-May-24 04:27N 29°38' W 093°19'2 4.9
2017-May-24 03:57N 29°37' W 093°17'0 0.0
2017-May-24 01:39N 29°37' W 093°17'0 0.0
2017-May-24 01:27N 29°37' W 093°17'0 0.0
2017-May-23 00:39N 29°37' W 093°17'0 0.1
2017-May-23 00:27N 29°37' W 093°17'0 0.0
2017-May-22 23:57N 29°37' W 093°17'0 0.0
2017-May-22 23:09N 29°37' W 093°17'0 0.1
2017-May-22 22:57N 29°37' W 093°17'0 0.0
2017-May-22 22:30N 29°37' W 093°17'0 0.0
2017-May-22 16:11N 29°37' W 093°17'0 0.0
2017-May-22 15:54N 29°37' W 093°17'0 0.0
2017-May-22 15:15N 29°37' W 093°17'0 0.0
2017-May-22 14:49N 29°37' W 093°17'1 0.8
2017-May-22 13:53N 29°37' W 093°17'  
2017-May-16 22:34N 25°10' W 080°07'313.8
2017-May-16 22:20N 25°13' W 080°06'414.1
2017-May-16 22:01N 25°17' W 080°04'713.8
2017-May-16 21:30N 25°24' W 080°02'713.7
2017-May-16 21:00N 25°30' W 080°01'713.5
2017-May-16 20:30N 25°37' W 080°01'713.8
2017-May-16 20:00N 25°44' W 080°00'714.1
2017-May-16 19:30N 25°51' W 080°00'713.8
2017-May-16 19:00N 25°58' W 079°60'713.8
2017-May-16 18:30N 26°05' W 079°59'713.7
2017-May-16 18:00N 26°12' W 079°58'713.7
2017-May-16 17:30N 26°19' W 079°58'713.4
2017-May-16 17:00N 26°25' W 079°57'713.3
2017-May-16 16:30N 26°32' W 079°57'1213.6
2017-May-16 15:39N 26°43' W 079°56'213.8
2017-May-16 15:30N 26°45' W 079°56'714.0
2017-May-16 15:00N 26°52' W 079°55'714.7
2017-May-16 14:30N 26°60' W 079°56'23416.3
2017-May-16 00:09N 30°52' W 080°30'1817.5
2017-May-15 23:08N 31°05' W 080°15'417.3
2017-May-15 22:54N 31°08' W 080°12'717.3
2017-May-15 22:29N 31°13' W 080°05'22516.2
2017-May-15 08:35N 33°48' W 076°52'116.0
2017-May-15 08:31N 33°49' W 076°51'815.9
2017-May-15 08:00N 33°54' W 076°44'816.0
2017-May-15 07:30N 33°60' W 076°37'816.0
2017-May-15 07:00N 34°05' W 076°29'815.8
2017-May-15 06:30N 34°10' W 076°22'815.6
2017-May-15 06:01N 34°15' W 076°15'1015.7
2017-May-15 05:23N 34°22' W 076°06'615.7
2017-May-15 05:00N 34°26' W 076°00'815.6
2017-May-15 04:31N 34°31' W 075°54'815.5
2017-May-15 04:00N 34°36' W 075°47'815.6
2017-May-15 03:30N 34°41' W 075°40'815.5
2017-May-15 03:00N 34°47' W 075°33'22115.9
2017-May-14 13:05N 38°24' W 074°42'216.6
2017-May-14 12:58N 38°25' W 074°44'1016.7
2017-May-14 12:24N 38°34' W 074°50'716.7
2017-May-14 12:00N 38°39' W 074°55'917.1
2017-May-14 11:29N 38°46' W 075°02'612.0
2017-May-14 11:01N 38°51' W 075°05'714.4
2017-May-14 10:30N 38°58' W 075°07'816.7
2017-May-14 10:00N 39°06' W 075°12'  
Track history (hours):
 
Tides and Currents Weather Stations Pressure Air Temp Water Temp Dewpoint Dewpoint Depression Visibility Wind Speed Wind Dir Waves Ship Positions

Chemical Pioneer

Owner: US Shipping Corp, Edison, NJ. More information available from US FCC via Universal Licensing System and Coast Guard Vessel Documentation Center.

Last reported at 2017-May-24 09:51 UTC. Time now 2017-May-24 19:36 UTC.
Position N 30°13' W 093°17'.

Type: Tanker. MMSI: 366032000.

Date/timePositionNaut miles runAvg speedWind from/ knotsBaromVisibWave heightAir tempDewpointWater temp
2017-May-24 09:51N 30°13' W 093°17'0 0.1
2017-May-24 09:30N 30°13' W 093°17'1 2.0
2017-May-24 09:00N 30°12' W 093°17'2 4.8
2017-May-24 08:30N 30°11' W 093°19'2 4.2
2017-May-24 08:00N 30°09' W 093°20'4 7.8
2017-May-24 07:30N 30°05' W 093°20'4 8.3
2017-May-24 07:00N 30°01' W 093°20'4 7.3
2017-May-24 06:30N 29°57' W 093°20'4 8.3
2017-May-24 06:00N 29°53' W 093°21'4 8.6
2017-May-24 05:30N 29°49' W 093°21'4 8.2
2017-May-24 05:00N 29°45' W 093°20'712.9
2017-May-24 04:27N 29°38' W 093°19'2 4.9
2017-May-24 03:57N 29°37' W 093°17'0 0.0
2017-May-24 01:39N 29°37' W 093°17'0 0.0
2017-May-24 01:27N 29°37' W 093°17'0 0.0
2017-May-23 00:39N 29°37' W 093°17'0 0.1
2017-May-23 00:27N 29°37' W 093°17'0 0.0
2017-May-22 23:57N 29°37' W 093°17'0 0.0
2017-May-22 23:09N 29°37' W 093°17'0 0.1
2017-May-22 22:57N 29°37' W 093°17'0 0.0
2017-May-22 22:30N 29°37' W 093°17'0 0.0
2017-May-22 16:11N 29°37' W 093°17'0 0.0
2017-May-22 15:54N 29°37' W 093°17'0 0.0
2017-May-22 15:15N 29°37' W 093°17'0 0.0
2017-May-22 14:49N 29°37' W 093°17'1 0.8
2017-May-22 13:53N 29°37' W 093°17'  
2017-May-16 22:34N 25°10' W 080°07'313.8
2017-May-16 22:20N 25°13' W 080°06'414.1
2017-May-16 22:01N 25°17' W 080°04'713.8
2017-May-16 21:30N 25°24' W 080°02'713.7
2017-May-16 21:00N 25°30' W 080°01'713.5
2017-May-16 20:30N 25°37' W 080°01'713.8
2017-May-16 20:00N 25°44' W 080°00'714.1
2017-May-16 19:30N 25°51' W 080°00'713.8
2017-May-16 19:00N 25°58' W 079°60'713.8
2017-May-16 18:30N 26°05' W 079°59'713.7
2017-May-16 18:00N 26°12' W 079°58'713.7
2017-May-16 17:30N 26°19' W 079°58'713.4
2017-May-16 17:00N 26°25' W 079°57'713.3
2017-May-16 16:30N 26°32' W 079°57'1213.6
2017-May-16 15:39N 26°43' W 079°56'213.8
2017-May-16 15:30N 26°45' W 079°56'714.0
2017-May-16 15:00N 26°52' W 079°55'714.7
2017-May-16 14:30N 26°60' W 079°56'23416.3
2017-May-16 00:09N 30°52' W 080°30'1817.5
2017-May-15 23:08N 31°05' W 080°15'417.3
2017-May-15 22:54N 31°08' W 080°12'717.3
2017-May-15 22:29N 31°13' W 080°05'22516.2
2017-May-15 08:35N 33°48' W 076°52'116.0
2017-May-15 08:31N 33°49' W 076°51'815.9
2017-May-15 08:00N 33°54' W 076°44'816.0
2017-May-15 07:30N 33°60' W 076°37'816.0
2017-May-15 07:00N 34°05' W 076°29'815.8
2017-May-15 06:30N 34°10' W 076°22'815.6
2017-May-15 06:01N 34°15' W 076°15'1015.7
2017-May-15 05:23N 34°22' W 076°06'615.7
2017-May-15 05:00N 34°26' W 076°00'815.6
2017-May-15 04:31N 34°31' W 075°54'815.5
2017-May-15 04:00N 34°36' W 075°47'815.6
2017-May-15 03:30N 34°41' W 075°40'815.5
2017-May-15 03:00N 34°47' W 075°33'22115.9
2017-May-14 13:05N 38°24' W 074°42'216.6
2017-May-14 12:58N 38°25' W 074°44'1016.7
2017-May-14 12:24N 38°34' W 074°50'716.7
2017-May-14 12:00N 38°39' W 074°55'917.1
2017-May-14 11:29N 38°46' W 075°02'612.0
2017-May-14 11:01N 38°51' W 075°05'714.4
2017-May-14 10:30N 38°58' W 075°07'816.7
2017-May-14 10:00N 39°06' W 075°12'  

Dump ship's entire track history